^^
Station Historical Data
Daily Summary for May 3, 2017 Units:  English    Metric   Both
« Previous Day
Next Day »
Daily Weekly Monthly Yearly Custom
  High: Low: Average:
Temperature: 62.6 °F 50.8 °F 57.3 °F
Dew Point: 42.1 °F 33.6 °F 38 °F
Humidity: 60% 40% 49%
Wind Speed: 8.0mph 0.0mph 2.9mph
Wind Gust: 20.0mph - -
Wind- - SW
Pressure: 30.21 in 29.77 in -
Precipitation: 0.00 in    
Historical Graphs
 
 
Tabular Data for May 3, 2017
Time Temperature Dew Point Pressure Wind Wind Speed Wind Gust Humidity Rainfall Rate (Hourly) Conditions
00:00 61.0 °F 38.9 °F 29.77 in SW 6.0 mph 14.0 mph 44% 0.00 in RA
00:15 60.7 °F 38.6 °F 29.78 in SW 8.0 mph 12.0 mph 44% 0.00 in BKN
00:30 60.4 °F 38.9 °F 29.78 in SW 6.0 mph 13.0 mph 45% 0.00 in BKN
00:45 60.1 °F 39.2 °F 29.79 in SSW 2.0 mph 8.0 mph 46% 0.00 in BKN
01:00 59.7 °F 39.4 °F 29.79 in SW 2.0 mph 9.0 mph 47% 0.00 in BKN
02:15 58.6 °F 40.0 °F 29.78 in WSW 3.0 mph 14.0 mph 50% 0.00 in BKN
02:30 58.3 °F 40.2 °F 29.79 in SW 2.0 mph 8.0 mph 51% 0.00 in BKN
03:00 58.1 °F 40.6 °F 29.78 in SW 7.0 mph 13.0 mph 52% 0.00 in BKN
03:15 58.1 °F 40.1 °F 29.78 in WSW 5.0 mph 10.0 mph 51% 0.00 in BKN
03:30 58.1 °F 40.6 °F 29.79 in SW 2.0 mph 13.0 mph 52% 0.00 in BKN
03:45 58.0 °F 40.5 °F 29.79 in SSW 5.0 mph 12.0 mph 52% 0.00 in BKN
04:00 57.9 °F 39.9 °F 29.79 in SW 8.0 mph 20.0 mph 51% 0.00 in BKN
04:15 57.9 °F 40.4 °F 29.80 in SW 6.0 mph 20.0 mph 52% 0.00 in BKN
04:30 57.7 °F 40.6 °F 29.80 in SW 3.0 mph 16.0 mph 53% 0.00 in BKN
04:45 57.4 °F 40.9 °F 29.80 in WSW 7.0 mph 14.0 mph 54% 0.00 in BKN
05:00 57.0 °F 41.0 °F 29.80 in SW 6.0 mph 13.0 mph 55% 0.00 in BKN
05:15 56.6 °F 41.1 °F 29.81 in SSW 2.0 mph 12.0 mph 56% 0.00 in BKN
05:30 56.2 °F 40.7 °F 29.81 in SW 3.0 mph 15.0 mph 56% 0.00 in BKN
05:45 55.9 °F 40.9 °F 29.81 in SW 3.0 mph 16.0 mph 57% 0.00 in BKN
06:00 55.5 °F 41.0 °F 29.82 in SSW 3.0 mph 12.0 mph 58% 0.00 in BKN
06:15 55.3 °F 40.8 °F 29.83 in WSW 5.0 mph 12.0 mph 58% 0.00 in SCT
06:30 55.3 °F 41.2 °F 29.83 in SSW 2.0 mph 13.0 mph 59% 0.00 in SCT
06:45 55.2 °F 41.1 °F 29.84 in SW 3.0 mph 10.0 mph 59% 0.00 in SCT
07:15 55.7 °F 42.0 °F 29.85 in SW 1.0 mph 7.0 mph 60% 0.00 in SCT
07:30 56.2 °F 41.6 °F 29.85 in SSE 1.0 mph 10.0 mph 58% 0.00 in SCT
07:45 56.2 °F 42.1 °F 29.85 in South 2.0 mph 6.0 mph 59% 0.00 in SCT
08:00 56.0 °F 41.0 °F 29.86 in SSW 6.0 mph 12.0 mph 57% 0.00 in SCT
08:15 56.1 °F 40.6 °F 29.85 in West 3.0 mph 12.0 mph 56% 0.00 in SCT
08:30 56.2 °F 40.2 °F 29.86 in WSW 2.0 mph 9.0 mph 55% 0.00 in SCT
08:45 56.1 °F 40.6 °F 29.86 in SW 3.0 mph 10.0 mph 56% 0.00 in SCT
09:00 56.0 °F 40.1 °F 29.86 in SSW 2.0 mph 12.0 mph 55% 0.00 in SCT
09:15 55.9 °F 40.9 °F 29.87 in West 5.0 mph 9.0 mph 57% 0.00 in BKN
09:30 55.7 °F 39.3 °F 29.88 in SW 1.0 mph 12.0 mph 54% 0.00 in BKN
09:45 55.6 °F 37.8 °F 29.88 in WSW 2.0 mph 10.0 mph 51% 0.00 in BKN
10:00 55.9 °F 37.0 °F 29.88 in SSE 5.0 mph 9.0 mph 49% 0.00 in BKN
10:15 56.3 °F 37.4 °F 29.88 in SSW 3.0 mph 14.0 mph 49% 0.00 in BKN
10:30 57.2 °F 38.2 °F 29.88 in SW 5.0 mph 12.0 mph 49% 0.00 in BKN
10:45 58.5 °F 38.3 °F 29.88 in SW 1.0 mph 12.0 mph 47% 0.00 in BKN
11:00 59.1 °F 37.2 °F 29.88 in West 3.0 mph 10.0 mph 44% 0.00 in BKN
11:15 60.2 °F 38.2 °F 29.88 in SW 3.0 mph 16.0 mph 44% 0.00 in BKN
11:30 58.9 °F 37.0 °F 29.89 in NW 1.0 mph 12.0 mph 44% 0.00 in BKN
11:45 58.4 °F 37.1 °F 29.89 in NNW 3.0 mph 8.0 mph 45% 0.00 in BKN
12:15 58.3 °F 37.6 °F 29.90 in East 2.0 mph 12.0 mph 46% 0.00 in BKN
12:30 58.3 °F 37.1 °F 29.91 in SSW 3.0 mph 18.0 mph 45% 0.00 in BKN
12:45 58.7 °F 38.5 °F 29.92 in SW 3.0 mph 10.0 mph 47% 0.00 in BKN
13:00 58.4 °F 38.3 °F 29.92 in West 2.0 mph 13.0 mph 47% 0.00 in BKN
13:15 58.8 °F 38.6 °F 29.92 in WNW 3.0 mph 13.0 mph 47% 0.00 in BKN
13:30 60.0 °F 39.7 °F 29.92 in West 5.0 mph 17.0 mph 47% 0.00 in BKN
13:45 59.5 °F 38.7 °F 29.92 in WSW 1.0 mph 12.0 mph 46% 0.00 in BKN
14:00 59.7 °F 39.4 °F 29.93 in NW 2.0 mph 12.0 mph 47% 0.00 in BKN
14:15 60.9 °F 39.4 °F 29.94 in SW 3.0 mph 18.0 mph 45% 0.00 in BKN
14:30 60.9 °F 38.8 °F 29.94 in SSW 3.0 mph 15.0 mph 44% 0.00 in BKN
14:45 62.6 °F 39.8 °F 29.94 in West 2.0 mph 15.0 mph 43% 0.00 in BKN
15:00 61.3 °F 38.6 °F 29.94 in WSW 3.0 mph 13.0 mph 43% 0.00 in BKN
15:15 60.5 °F 38.5 °F 29.95 in WSW 2.0 mph 14.0 mph 44% 0.00 in BKN
15:30 60.3 °F 39.4 °F 29.95 in NW 3.0 mph 13.0 mph 46% 0.00 in BKN
15:45 61.4 °F 39.3 °F 29.96 in SSW 2.0 mph 16.0 mph 44% 0.00 in BKN
16:00 61.9 °F 39.7 °F 29.96 in WSW 3.0 mph 14.0 mph 44% 0.00 in BKN
16:15 61.6 °F 37.6 °F 29.97 in SW 6.0 mph 12.0 mph 41% 0.00 in SCT
16:30 61.7 °F 38.4 °F 29.98 in NNW 3.0 mph 14.0 mph 42% 0.00 in SCT
16:45 61.1 °F 37.2 °F 29.99 in NNW 3.0 mph 12.0 mph 41% 0.00 in SCT
17:00 59.9 °F 35.5 °F 29.99 in NNE 3.0 mph 15.0 mph 40% 0.00 in SCT
17:15 60.4 °F 37.2 °F 29.99 in ENE 1.0 mph 12.0 mph 42% 0.00 in FEW
17:30 60.1 °F 36.3 °F 30.00 in NNE 3.0 mph 10.0 mph 41% 0.00 in FEW
17:45 60.1 °F 35.7 °F 30.00 in ENE 5.0 mph 12.0 mph 40% 0.00 in FEW
18:00 60.2 °F 36.4 °F 30.00 in North 3.0 mph 13.0 mph 41% 0.00 in FEW
18:15 59.9 °F 35.5 °F 30.01 in NNW 6.0 mph 14.0 mph 40% 0.00 in CLR
18:30 59.4 °F 35.7 °F 30.01 in NNE 2.0 mph 15.0 mph 41% 0.00 in CLR
18:45 59.2 °F 34.9 °F 30.02 in North 1.0 mph 12.0 mph 40% 0.00 in CLR
19:00 58.7 °F 35.0 °F 30.02 in NW 2.0 mph 14.0 mph 41% 0.00 in CLR
19:15 58.0 °F 35.0 °F 30.03 in WNW 3.0 mph 14.0 mph 42% 0.00 in CLR
19:30 57.0 °F 35.3 °F 30.05 in North 1.0 mph 8.0 mph 44% 0.00 in CLR
19:45 56.4 °F 34.2 °F 30.05 in NE 2.0 mph 12.0 mph 43% 0.00 in CLR
20:00 55.8 °F 34.2 °F 30.05 in North 2.0 mph 9.0 mph 44% 0.00 in CLR
20:15 55.7 °F 34.6 °F 30.08 in NNE 1.0 mph 10.0 mph 45% 0.00 in CLR
20:30 54.8 °F 35.0 °F 30.09 in NNW 1.0 mph 7.0 mph 47% 0.00 in CLR
20:45 53.9 °F 34.1 °F 30.12 in NNW 1.0 mph 7.0 mph 47% 0.00 in CLR
21:00 53.3 °F 33.6 °F 30.14 in NW 2.0 mph 6.0 mph 47% 0.00 in CLR
21:15 52.9 °F 33.7 °F 30.16 in NNW 2.0 mph 6.0 mph 48% 0.00 in CLR
21:30 52.4 °F 34.3 °F 30.17 in Calm   5.0 mph 50% 0.00 in CLR
21:45 51.8 °F 34.2 °F 30.18 in NNW 1.0 mph 4.0 mph 51% 0.00 in CLR
22:00 51.1 °F 33.6 °F 30.18 in Calm   1.0 mph 51% 0.00 in CLR
22:15 51.0 °F 33.9 °F 30.20 in Calm   2.0 mph 52% 0.00 in CLR
22:30 50.9 °F 34.4 °F 30.20 in Calm   2.0 mph 53% 0.00 in CLR
22:45 50.8 °F 35.2 °F 30.20 in NNE 1.0 mph 5.0 mph 55% 0.00 in CLR
23:00 51.3 °F 34.7 °F 30.20 in NE 1.0 mph 6.0 mph 53% 0.00 in CLR
23:15 51.6 °F 34.0 °F 30.21 in North 1.0 mph 9.0 mph 51% 0.00 in CLR
23:30 51.2 °F 34.2 °F 30.21 in North 2.0 mph 8.0 mph 52% 0.00 in CLR
23:45 50.9 °F 34.4 °F 30.21 in North 2.0 mph 7.0 mph 53% 0.00 in CLR
TarryTown NY Weather
Compliments of Weather Underground - 1.5 mb